createdAt,value
2022-10-19T00:02:22.436Z,17.04
2022-10-19T00:04:49.008Z,16.69
2022-10-19T00:07:15.595Z,16.77
2022-10-19T00:09:43.805Z,16.27
2022-10-19T00:12:10.972Z,16.31
2022-10-19T00:14:37.501Z,16.20
2022-10-19T00:17:04.026Z,16.16
2022-10-19T00:19:30.638Z,16.25
2022-10-19T00:21:57.282Z,16.08
2022-10-19T00:24:23.882Z,16.00
2022-10-19T00:26:50.420Z,16.26
2022-10-19T00:29:17.328Z,16.05
2022-10-19T00:31:43.990Z,16.00
2022-10-19T00:34:10.651Z,16.08
2022-10-19T00:36:40.034Z,16.16
2022-10-19T00:39:10.900Z,16.45
2022-10-19T00:41:38.734Z,16.23
2022-10-19T00:44:28.315Z,16.30
2022-10-19T00:46:59.165Z,16.34
2022-10-19T00:49:29.840Z,15.60
2022-10-19T00:52:01.539Z,15.40
2022-10-19T00:54:28.310Z,15.91
2022-10-19T00:56:57.815Z,15.81
2022-10-19T00:59:26.642Z,15.88
2022-10-19T01:01:54.267Z,16.07
2022-10-19T01:04:23.452Z,16.04
2022-10-19T01:09:23.239Z,15.38
2022-10-19T01:12:15.175Z,15.87
2022-10-19T01:14:50.693Z,15.89
2022-10-19T01:17:52.485Z,15.79
2022-10-19T01:20:33.643Z,15.60
2022-10-19T01:23:24.229Z,15.74
2022-10-19T01:26:19.909Z,15.77
2022-10-19T01:29:08.238Z,15.84
2022-10-19T01:31:49.156Z,15.76
2022-10-19T01:34:48.894Z,16.22
2022-10-19T01:37:35.588Z,16.23
2022-10-19T01:40:02.395Z,16.19
2022-10-19T01:42:46.761Z,15.79
2022-10-19T01:45:21.693Z,15.64
2022-10-19T01:47:52.751Z,15.46
2022-10-19T01:50:27.250Z,15.86
2022-10-19T01:52:55.483Z,16.13
2022-10-19T01:55:24.455Z,15.52
2022-10-19T01:57:59.193Z,15.39
2022-10-19T02:00:27.516Z,15.25
2022-10-19T02:02:56.028Z,15.46
2022-10-19T02:05:30.859Z,15.28
2022-10-19T02:08:05.839Z,15.71
2022-10-19T02:10:35.159Z,15.55
2022-10-19T02:13:03.100Z,15.81
2022-10-19T02:15:34.711Z,15.98
2022-10-19T02:18:03.331Z,15.69
2022-10-19T02:20:30.675Z,15.53
2022-10-19T02:22:57.215Z,15.32
2022-10-19T02:25:25.033Z,15.45
2022-10-19T02:27:52.530Z,14.91
2022-10-19T02:30:20.190Z,14.72
2022-10-19T02:32:46.765Z,15.45
2022-10-19T02:35:14.698Z,15.75
2022-10-19T02:37:42.014Z,15.33
2022-10-19T02:40:09.480Z,15.08
2022-10-19T02:42:42.671Z,14.77
2022-10-19T02:45:29.389Z,15.11
2022-10-19T02:48:01.087Z,15.21
2022-10-19T02:50:27.837Z,15.31
2022-10-19T02:52:54.394Z,15.41
2022-10-19T02:55:21.017Z,15.42
2022-10-19T02:57:47.540Z,15.12
2022-10-19T03:00:14.714Z,15.24
2022-10-19T03:02:41.246Z,15.41
2022-10-19T03:05:09.193Z,15.20
2022-10-19T03:07:36.242Z,15.28
2022-10-19T03:10:03.338Z,15.04
2022-10-19T03:12:29.945Z,15.41
2022-10-19T03:14:56.561Z,15.63
2022-10-19T03:17:23.093Z,15.69
2022-10-19T03:19:49.691Z,15.63
2022-10-19T03:22:16.262Z,15.47
2022-10-19T03:24:42.810Z,14.99
2022-10-19T03:27:09.355Z,15.11
2022-10-19T03:29:36.000Z,15.57
2022-10-19T03:32:02.569Z,14.90
2022-10-19T03:34:29.309Z,14.83
2022-10-19T03:36:56.777Z,14.73
2022-10-19T03:39:23.388Z,15.17
2022-10-19T03:41:50.000Z,14.91
2022-10-19T03:44:16.724Z,14.84
2022-10-19T03:46:43.417Z,15.01
2022-10-19T03:49:10.238Z,14.96
2022-10-19T03:51:36.836Z,14.83
2022-10-19T03:54:06.340Z,15.26
2022-10-19T03:56:33.954Z,15.12
2022-10-19T03:59:01.927Z,14.85
2022-10-19T04:01:37.923Z,14.87
2022-10-19T04:04:07.541Z,15.05
2022-10-19T04:06:37.403Z,15.18
2022-10-19T04:09:05.569Z,15.38
2022-10-19T04:11:33.759Z,15.26
2022-10-19T04:14:00.973Z,15.34
2022-10-19T04:16:29.570Z,14.79
2022-10-19T04:18:56.595Z,14.95
2022-10-19T04:21:27.888Z,15.11
2022-10-19T04:24:00.127Z,15.24
2022-10-19T04:26:27.045Z,15.26
2022-10-19T04:28:53.890Z,14.72
2022-10-19T04:31:20.525Z,15.09
2022-10-19T04:36:19.352Z,15.13
2022-10-19T04:38:46.181Z,15.08
2022-10-19T04:41:15.307Z,14.88
2022-10-19T04:43:45.120Z,14.76
2022-10-19T04:46:19.363Z,14.85
2022-10-19T04:48:47.896Z,14.76
2022-10-19T04:51:15.763Z,14.50
2022-10-19T04:53:43.456Z,14.56
2022-10-19T04:56:13.567Z,14.48
2022-10-19T04:58:40.106Z,14.20
2022-10-19T05:01:18.394Z,14.67
2022-10-19T05:03:45.758Z,14.66
2022-10-19T05:06:13.574Z,14.27
2022-10-19T05:08:40.223Z,14.86
2022-10-19T05:11:10.517Z,14.84
2022-10-19T05:13:37.463Z,14.75
2022-10-19T05:16:06.529Z,14.82
2022-10-19T05:18:34.385Z,14.64
2022-10-19T05:21:14.516Z,14.99
2022-10-19T05:23:41.805Z,14.76
2022-10-19T05:26:19.773Z,14.93
2022-10-19T05:28:51.537Z,14.80
2022-10-19T05:31:20.261Z,14.75
2022-10-19T05:33:47.051Z,14.83
2022-10-19T05:36:21.010Z,14.83
2022-10-19T05:38:49.836Z,14.48
2022-10-19T05:41:17.123Z,14.67
2022-10-19T05:43:44.302Z,14.61
2022-10-19T05:46:13.805Z,14.97
2022-10-19T05:48:40.946Z,14.79
2022-10-19T05:51:10.211Z,14.89
2022-10-19T05:56:09.597Z,14.88
2022-10-19T05:58:36.125Z,14.65
2022-10-19T06:01:03.261Z,14.85
2022-10-19T06:03:30.717Z,14.53
2022-10-19T06:05:58.213Z,14.61
2022-10-19T06:08:25.012Z,14.92
2022-10-19T06:10:51.758Z,14.29
2022-10-19T06:13:19.438Z,14.56
2022-10-19T06:15:50.263Z,14.64
2022-10-19T06:18:16.768Z,14.77
2022-10-19T06:20:43.270Z,14.85
2022-10-19T06:23:09.799Z,14.82
2022-10-19T06:25:36.683Z,14.74
2022-10-19T06:28:03.642Z,14.52
2022-10-19T06:30:30.329Z,14.70
2022-10-19T06:32:59.122Z,14.85
2022-10-19T06:35:25.882Z,14.79
2022-10-19T06:37:52.416Z,14.91
2022-10-19T06:40:19.095Z,15.07
2022-10-19T06:42:45.718Z,15.12
2022-10-19T06:45:12.261Z,15.20
2022-10-19T06:47:39.174Z,15.22
2022-10-19T06:50:06.893Z,15.25
2022-10-19T06:52:35.317Z,15.16
2022-10-19T06:55:02.619Z,15.29
2022-10-19T06:57:29.394Z,15.11
2022-10-19T06:59:55.979Z,14.31
2022-10-19T07:02:22.554Z,14.76
2022-10-19T07:04:49.096Z,15.02
2022-10-19T07:07:15.850Z,15.02
2022-10-19T07:09:42.391Z,15.12
2022-10-19T07:12:10.724Z,14.79
2022-10-19T07:14:39.601Z,15.02
2022-10-19T07:17:07.006Z,15.23
2022-10-19T07:19:34.350Z,15.08
2022-10-19T07:22:00.892Z,15.16
2022-10-19T07:24:27.500Z,15.27
2022-10-19T07:26:54.240Z,15.39
2022-10-19T07:29:21.191Z,15.47
2022-10-19T07:31:47.991Z,15.42
2022-10-19T07:34:14.971Z,15.48
2022-10-19T07:36:45.345Z,15.48
2022-10-19T07:39:13.119Z,15.51
2022-10-19T07:41:39.844Z,15.55
2022-10-19T07:44:07.457Z,15.42
2022-10-19T07:46:38.663Z,15.36
2022-10-19T07:49:09.885Z,15.23
2022-10-19T07:51:38.543Z,14.91
2022-10-19T07:54:05.232Z,15.04
2022-10-19T07:56:32.090Z,15.03
2022-10-19T07:59:00.139Z,15.15
2022-10-19T08:01:31.985Z,15.32
2022-10-19T08:06:46.573Z,15.64
2022-10-19T08:09:27.620Z,15.38
2022-10-19T08:11:59.763Z,15.21
2022-10-19T08:14:26.401Z,15.20
2022-10-19T08:16:52.911Z,15.12
2022-10-19T08:19:19.442Z,15.19
2022-10-19T08:21:46.921Z,15.26
2022-10-19T08:24:15.224Z,15.32
2022-10-19T08:26:42.268Z,15.52
2022-10-19T08:29:14.960Z,15.34
2022-10-19T08:31:43.032Z,15.45
2022-10-19T08:34:09.798Z,15.39
2022-10-19T08:36:37.114Z,15.36
2022-10-19T08:39:06.030Z,15.16
2022-10-19T08:41:50.081Z,15.06
2022-10-19T08:44:49.161Z,15.19
2022-10-19T08:47:35.930Z,15.23
2022-10-19T08:50:03.673Z,15.27
2022-10-19T08:52:34.788Z,15.20
2022-10-19T08:55:08.907Z,15.23
2022-10-19T08:58:04.889Z,15.31
2022-10-19T09:00:48.245Z,15.24
2022-10-19T09:03:37.667Z,15.45
2022-10-19T09:06:26.984Z,15.49
2022-10-19T09:08:55.727Z,15.60
2022-10-19T09:11:46.206Z,15.54
2022-10-19T09:14:33.004Z,15.69
2022-10-19T09:17:04.025Z,15.59
2022-10-19T09:19:31.950Z,15.63
2022-10-19T09:22:23.530Z,15.45
2022-10-19T09:24:55.459Z,15.58
2022-10-19T09:27:30.035Z,15.66
2022-10-19T09:30:05.447Z,15.63
2022-10-19T09:32:38.674Z,15.85
2022-10-19T09:35:17.413Z,15.69
2022-10-19T09:37:47.002Z,16.04
2022-10-19T09:40:18.443Z,15.68
2022-10-19T09:42:45.065Z,15.84
2022-10-19T09:45:26.092Z,15.70
2022-10-19T09:47:53.353Z,15.95
2022-10-19T09:50:25.731Z,15.85
2022-10-19T09:52:57.478Z,16.06
2022-10-19T09:55:37.796Z,15.90
2022-10-19T09:58:13.500Z,15.99
2022-10-19T10:00:50.722Z,16.08
2022-10-19T10:03:29.429Z,16.30
2022-10-19T10:05:59.216Z,15.96
2022-10-19T10:08:36.830Z,16.15
2022-10-19T10:11:22.243Z,16.23
2022-10-19T10:13:51.684Z,16.43
2022-10-19T10:16:22.196Z,16.26
2022-10-19T10:18:56.822Z,16.23
2022-10-19T10:21:33.917Z,16.28
2022-10-19T10:24:17.873Z,16.38
2022-10-19T10:26:56.736Z,16.24
2022-10-19T10:29:35.158Z,16.61
2022-10-19T10:32:06.337Z,16.23
2022-10-19T10:34:58.393Z,16.51
2022-10-19T10:37:42.670Z,16.24
2022-10-19T10:40:24.684Z,16.32
2022-10-19T10:42:55.123Z,16.56
2022-10-19T10:45:24.797Z,16.38
2022-10-19T10:47:53.125Z,16.54
2022-10-19T10:50:25.881Z,16.87
2022-10-19T10:53:07.387Z,16.81
2022-10-19T10:55:34.570Z,16.72
2022-10-19T10:58:13.941Z,16.62
2022-10-19T11:00:41.029Z,16.72
2022-10-19T11:03:19.953Z,17.07
2022-10-19T11:05:59.296Z,17.08
2022-10-19T11:08:49.178Z,17.04
2022-10-19T11:11:17.799Z,17.37
2022-10-19T11:13:56.025Z,17.26
2022-10-19T11:16:28.898Z,17.14
2022-10-19T11:19:02.077Z,17.31
2022-10-19T11:21:40.330Z,17.20
2022-10-19T11:24:18.117Z,17.28
2022-10-19T11:27:28.231Z,17.61
2022-10-19T11:30:01.477Z,17.55
2022-10-19T11:32:36.670Z,17.75
2022-10-19T11:35:09.275Z,17.78
2022-10-19T11:37:45.654Z,18.04
2022-10-19T11:40:45.841Z,17.83
2022-10-19T11:43:37.001Z,17.48
2022-10-19T11:46:21.717Z,17.66
2022-10-19T11:49:13.534Z,17.48
2022-10-19T11:52:13.011Z,17.56
2022-10-19T11:55:14.038Z,17.25
2022-10-19T11:58:05.639Z,17.50
2022-10-19T12:00:44.638Z,17.61
2022-10-19T12:03:24.798Z,17.68
2022-10-19T12:06:17.978Z,17.63
2022-10-19T12:09:15.287Z,17.58
2022-10-19T12:12:03.539Z,17.65
2022-10-19T12:14:39.587Z,17.42
2022-10-19T12:17:23.377Z,17.31
2022-10-19T12:19:55.238Z,17.47
2022-10-19T12:22:25.107Z,17.79
2022-10-19T12:24:55.433Z,17.74
2022-10-19T12:27:30.577Z,17.88
2022-10-19T12:30:02.756Z,17.74
2022-10-19T12:32:36.502Z,17.69
2022-10-19T12:35:47.284Z,17.79
2022-10-19T12:38:46.140Z,17.77
2022-10-19T12:41:44.283Z,17.72
2022-10-19T12:44:13.900Z,17.92
2022-10-19T12:46:49.819Z,18.03
2022-10-19T12:49:46.056Z,17.85
2022-10-19T12:52:14.942Z,17.99
2022-10-19T12:54:43.641Z,18.12
2022-10-19T12:57:30.656Z,18.38
2022-10-19T13:00:00.842Z,18.32
2022-10-19T13:02:35.307Z,18.13
2022-10-19T13:05:03.267Z,18.13
2022-10-19T13:07:34.830Z,18.01
2022-10-19T13:10:05.544Z,17.93
2022-10-19T13:12:44.788Z,17.83
2022-10-19T13:15:35.694Z,18.01
2022-10-19T13:18:12.861Z,17.88
2022-10-19T13:23:06.945Z,17.73
2022-10-19T13:25:40.673Z,17.78
2022-10-19T13:28:07.337Z,17.63
2022-10-19T13:30:39.584Z,17.65
2022-10-19T13:33:24.824Z,17.68
2022-10-19T13:36:00.491Z,17.70
2022-10-19T13:41:22.382Z,17.41
2022-10-19T13:43:55.436Z,17.22
2022-10-19T13:46:29.738Z,17.54
2022-10-19T13:49:13.663Z,17.25
2022-10-19T13:51:58.685Z,17.23
2022-10-19T13:55:02.916Z,17.32
2022-10-19T13:58:06.755Z,17.46
2022-10-19T14:01:04.220Z,17.36
2022-10-19T14:03:33.709Z,17.39
2022-10-19T14:06:15.060Z,17.40
2022-10-19T14:08:47.655Z,17.40
2022-10-19T14:11:18.176Z,17.33
2022-10-19T14:13:46.279Z,17.48
2022-10-19T14:16:21.899Z,17.46
2022-10-19T14:18:55.915Z,17.74
2022-10-19T14:21:31.824Z,17.49
2022-10-19T14:23:58.556Z,17.54
2022-10-19T14:26:30.821Z,17.30
2022-10-19T14:28:59.863Z,17.39
2022-10-19T14:31:34.132Z,17.26
2022-10-19T14:34:03.811Z,17.23
2022-10-19T14:36:39.046Z,17.23
2022-10-19T14:39:07.561Z,17.24
2022-10-19T14:41:36.381Z,17.14
2022-10-19T14:44:30.743Z,17.24
2022-10-19T14:47:01.181Z,17.38
2022-10-19T14:49:28.107Z,17.32
2022-10-19T14:52:00.533Z,17.43
2022-10-19T14:54:32.552Z,17.53
2022-10-19T14:57:05.195Z,17.39
2022-10-19T14:59:38.263Z,17.52
2022-10-19T15:02:17.124Z,17.58
2022-10-19T15:04:44.071Z,17.04
2022-10-19T15:07:36.998Z,17.15
2022-10-19T15:10:08.373Z,17.18
2022-10-19T15:12:41.349Z,17.14
2022-10-19T15:15:17.238Z,17.17
2022-10-19T15:18:06.357Z,17.36
2022-10-19T15:20:49.497Z,17.58
2022-10-19T15:23:45.026Z,17.73
2022-10-19T15:26:22.278Z,17.67
2022-10-19T15:28:49.419Z,17.25
2022-10-19T15:31:23.856Z,17.43
2022-10-19T15:33:59.668Z,17.45
2022-10-19T15:36:27.943Z,17.38
2022-10-19T15:39:06.125Z,16.93
2022-10-19T15:41:44.404Z,16.91
2022-10-19T15:44:40.979Z,16.98
2022-10-19T15:47:18.778Z,17.07
2022-10-19T15:49:45.724Z,17.25
2022-10-19T15:52:17.245Z,17.43
2022-10-19T15:54:47.523Z,17.49
2022-10-19T15:57:37.344Z,17.66
2022-10-19T16:00:17.203Z,17.48
2022-10-19T16:02:44.215Z,17.61
2022-10-19T16:05:11.444Z,17.53
2022-10-19T16:07:40.816Z,17.66
2022-10-19T16:10:11.409Z,17.39
2022-10-19T16:12:37.983Z,17.30
2022-10-19T16:15:05.145Z,17.53
2022-10-19T16:17:33.116Z,17.41
2022-10-19T16:19:59.877Z,17.56
2022-10-19T16:22:26.398Z,17.60
2022-10-19T16:24:52.933Z,17.58
2022-10-19T16:27:19.492Z,17.47
2022-10-19T16:29:46.062Z,17.58
2022-10-19T16:32:12.656Z,17.43
2022-10-19T16:34:39.303Z,17.51
2022-10-19T16:37:07.280Z,17.71
2022-10-19T16:39:34.816Z,17.60
2022-10-19T16:42:01.513Z,17.61
2022-10-19T16:44:28.364Z,17.20
2022-10-19T16:46:59.262Z,17.66
2022-10-19T16:49:26.641Z,17.58
2022-10-19T16:51:57.424Z,17.56
2022-10-19T16:54:25.718Z,17.38
2022-10-19T16:56:52.637Z,17.45
2022-10-19T16:59:19.394Z,17.38
2022-10-19T17:01:46.677Z,17.28
2022-10-19T17:04:17.121Z,17.34
2022-10-19T17:06:43.790Z,17.42
2022-10-19T17:11:57.069Z,17.09
2022-10-19T17:14:23.607Z,17.00
2022-10-19T17:16:50.458Z,16.98
2022-10-19T17:19:18.254Z,17.21
2022-10-19T17:21:45.140Z,17.46
2022-10-19T17:24:20.380Z,17.46
2022-10-19T17:26:51.255Z,17.25
2022-10-19T17:29:21.042Z,16.92
2022-10-19T17:31:48.642Z,17.10
2022-10-19T17:34:15.884Z,17.08
2022-10-19T17:36:45.143Z,17.08
2022-10-19T17:39:19.214Z,17.24
2022-10-19T17:41:47.524Z,17.23
2022-10-19T17:44:14.599Z,17.11
2022-10-19T17:46:41.606Z,17.17
2022-10-19T17:49:09.152Z,16.99
2022-10-19T17:51:36.978Z,17.15
2022-10-19T17:54:07.514Z,16.53
2022-10-19T17:56:35.530Z,16.70
2022-10-19T17:59:03.105Z,16.62
2022-10-19T18:01:30.869Z,16.95
2022-10-19T18:03:57.634Z,17.06
2022-10-19T18:06:31.553Z,16.45
2022-10-19T18:09:00.080Z,16.79
2022-10-19T18:11:29.762Z,16.66
2022-10-19T18:13:59.430Z,16.86
2022-10-19T18:16:29.495Z,16.73
2022-10-19T18:18:57.538Z,16.89
2022-10-19T18:21:30.489Z,17.03
2022-10-19T18:23:59.227Z,16.90
2022-10-19T18:26:28.100Z,17.07
2022-10-19T18:28:55.887Z,16.92
2022-10-19T18:31:30.715Z,16.63
2022-10-19T18:34:02.701Z,16.74
2022-10-19T18:36:30.693Z,16.72
2022-10-19T18:38:59.882Z,16.65
2022-10-19T18:41:27.511Z,16.65
2022-10-19T18:43:56.462Z,16.73
2022-10-19T18:46:24.539Z,16.86
2022-10-19T18:48:51.420Z,16.89
2022-10-19T18:51:19.182Z,16.91
2022-10-19T18:53:47.077Z,16.59
2022-10-19T18:56:18.154Z,16.46
2022-10-19T18:58:45.334Z,16.43
2022-10-19T19:01:13.345Z,16.53
2022-10-19T19:03:45.470Z,16.15
2022-10-19T19:06:34.732Z,16.20
2022-10-19T19:09:04.458Z,16.53
2022-10-19T19:11:36.067Z,16.66
2022-10-19T19:14:14.470Z,16.67
2022-10-19T19:16:43.154Z,16.61
2022-10-19T19:19:11.985Z,16.80
2022-10-19T19:21:41.029Z,16.63
2022-10-19T19:24:08.095Z,16.60
2022-10-19T19:26:38.870Z,16.46
2022-10-19T19:29:05.427Z,16.42
2022-10-19T19:31:32.035Z,16.31
2022-10-19T19:34:03.059Z,16.27
2022-10-19T19:36:29.746Z,16.62
2022-10-19T19:38:56.819Z,16.16
2022-10-19T19:41:24.582Z,16.31
2022-10-19T19:43:51.504Z,16.11
2022-10-19T19:46:19.470Z,16.21
2022-10-19T19:48:47.584Z,15.99
2022-10-19T19:51:17.784Z,16.56
2022-10-19T19:53:45.418Z,16.24
2022-10-19T19:56:13.203Z,15.93
2022-10-19T19:58:41.000Z,16.16
2022-10-19T20:01:20.637Z,15.97
2022-10-19T20:03:48.803Z,15.66
2022-10-19T20:06:18.726Z,15.81
2022-10-19T20:08:47.480Z,15.86
2022-10-19T20:11:17.437Z,15.87
2022-10-19T20:13:45.566Z,16.24
2022-10-19T20:16:18.027Z,15.83
2022-10-19T20:18:48.837Z,15.92
2022-10-19T20:21:15.973Z,16.09
2022-10-19T20:23:46.627Z,15.96
2022-10-19T20:26:18.366Z,15.87
2022-10-19T20:28:46.269Z,15.78
2022-10-19T20:31:13.565Z,15.82
2022-10-19T20:33:42.111Z,15.95
2022-10-19T20:36:14.264Z,16.06
2022-10-19T20:38:46.273Z,16.11
2022-10-19T20:41:13.708Z,16.08
2022-10-19T20:43:40.345Z,16.25
2022-10-19T20:46:13.531Z,15.98
2022-10-19T20:48:40.833Z,15.76
2022-10-19T20:51:30.631Z,15.59
2022-10-19T20:54:01.800Z,15.80
2022-10-19T20:56:31.402Z,15.88
2022-10-19T21:01:36.484Z,15.63
2022-10-19T21:04:05.383Z,15.66
2022-10-19T21:06:38.093Z,16.10
2022-10-19T21:09:04.811Z,16.08
2022-10-19T21:11:34.792Z,16.09
2022-10-19T21:14:07.241Z,16.20
2022-10-19T21:16:35.228Z,16.19
2022-10-19T21:19:04.305Z,16.35
2022-10-19T21:21:34.011Z,16.23
2022-10-19T21:24:11.075Z,16.38
2022-10-19T21:26:38.472Z,16.24
2022-10-19T21:29:07.357Z,15.92
2022-10-19T21:31:35.194Z,16.23
2022-10-19T21:34:06.574Z,16.18
2022-10-19T21:36:33.501Z,15.84
2022-10-19T21:39:00.707Z,15.70
2022-10-19T21:41:27.536Z,15.99
2022-10-19T21:43:54.743Z,15.89
2022-10-19T21:46:22.950Z,16.00
2022-10-19T21:48:50.089Z,16.23
2022-10-19T21:51:39.191Z,16.27
2022-10-19T21:54:07.913Z,15.91
2022-10-19T21:56:35.134Z,16.22
2022-10-19T21:59:01.742Z,16.11
2022-10-19T22:01:30.161Z,16.04
2022-10-19T22:03:58.487Z,16.05
2022-10-19T22:06:27.282Z,16.08
2022-10-19T22:08:54.296Z,15.88
2022-10-19T22:11:21.377Z,16.16
2022-10-19T22:13:48.131Z,16.16
2022-10-19T22:16:17.714Z,15.88
2022-10-19T22:18:44.723Z,15.97
2022-10-19T22:21:20.359Z,15.89
2022-10-19T22:23:53.327Z,16.03
2022-10-19T22:26:25.540Z,16.14
2022-10-19T22:28:54.240Z,16.11
2022-10-19T22:31:21.320Z,15.97
2022-10-19T22:33:47.955Z,15.91
2022-10-19T22:36:14.536Z,15.96
2022-10-19T22:38:41.065Z,15.85
2022-10-19T22:41:09.127Z,15.93
2022-10-19T22:43:36.872Z,15.74
2022-10-19T22:46:03.458Z,15.78
2022-10-19T22:48:30.002Z,15.59
2022-10-19T22:50:56.661Z,15.56
2022-10-19T22:53:24.077Z,15.84
2022-10-19T22:55:51.639Z,15.66
2022-10-19T22:58:19.078Z,15.62
2022-10-19T23:00:45.619Z,15.77
2022-10-19T23:03:12.253Z,15.98
2022-10-19T23:05:38.799Z,15.96
2022-10-19T23:08:05.568Z,15.90
2022-10-19T23:10:32.645Z,15.72
2022-10-19T23:12:59.349Z,15.11
2022-10-19T23:15:26.055Z,15.69
2022-10-19T23:17:52.606Z,15.77
2022-10-19T23:20:19.162Z,15.89
2022-10-19T23:22:46.009Z,15.46
2022-10-19T23:25:12.938Z,15.87
2022-10-19T23:27:39.730Z,15.89
2022-10-19T23:30:06.997Z,15.78
2022-10-19T23:32:33.530Z,15.81
2022-10-19T23:35:00.070Z,15.71
2022-10-19T23:37:26.722Z,15.66
2022-10-19T23:39:53.302Z,15.63
2022-10-19T23:42:19.865Z,15.64
2022-10-19T23:44:46.595Z,15.75
2022-10-19T23:47:13.954Z,15.90
2022-10-19T23:49:40.528Z,15.63
2022-10-19T23:52:07.389Z,15.57
2022-10-19T23:54:33.956Z,15.63
2022-10-19T23:57:00.676Z,15.75
2022-10-19T23:59:27.635Z,15.58
